Time;durP1;ratioP1;P1;durP2;ratioP2;P2;SDS_P1;SDS_P2;PMS_P1;PMS_P2;Temp;Humidity;BMP_temperature;BMP_pressure;BME280_temperature;BME280_humidity;BME280_pressure;Samples;Min_cycle;Max_cycle;Signal;HPM_P1;HPM_P2
2021/12/18 00:01:15;;;;;;;22.38;12.63;;;;;;;6.67;100.00;103961.53;5114198;28;20031;-58
2021/12/18 00:03:41;;;;;;;23.20;13.13;;;;;;;6.66;100.00;103959.72;5114576;28;20035;-57
2021/12/18 00:06:06;;;;;;;23.77;12.45;;;;;;;6.66;100.00;103959.72;5114776;28;20023;-58
2021/12/18 00:08:31;;;;;;;25.33;13.27;;;;;;;6.67;100.00;103957.28;5114223;28;20064;-58
2021/12/18 00:10:57;;;;;;;22.48;13.10;;;;;;;6.67;100.00;103954.72;5114608;28;20394;-58
2021/12/18 00:13:23;;;;;;;24.67;14.07;;;;;;;6.65;100.00;103953.69;5114493;28;20027;-57
2021/12/18 00:15:49;;;;;;;27.88;14.90;;;;;;;6.65;100.00;103952.78;5114429;28;20023;-57
2021/12/18 00:18:14;;;;;;;31.85;16.77;;;;;;;6.64;100.00;103951.00;5113842;28;20028;-56
2021/12/18 00:20:40;;;;;;;30.38;16.45;;;;;;;6.63;100.00;103951.75;5113784;28;20039;-58
2021/12/18 00:23:05;;;;;;;29.90;16.83;;;;;;;6.61;100.00;103948.13;5114486;28;20024;-57
2021/12/18 00:25:32;;;;;;;30.42;16.65;;;;;;;6.59;100.00;103954.00;5114151;28;20440;-57
2021/12/18 00:27:57;;;;;;;28.05;14.65;;;;;;;6.57;100.00;103950.41;5113917;28;20024;-58
2021/12/18 00:30:23;;;;;;;29.60;15.35;;;;;;;6.55;100.00;103946.78;5114105;28;20035;-58
2021/12/18 00:32:49;;;;;;;26.70;14.38;;;;;;;6.56;100.00;103940.91;5114024;28;20020;-58
2021/12/18 00:35:14;;;;;;;27.63;15.43;;;;;;;6.55;100.00;103935.63;5113302;27;20053;-57
2021/12/18 00:37:40;;;;;;;22.17;12.68;;;;;;;6.55;100.00;103936.53;5114151;28;20020;-57
2021/12/18 00:40:11;;;;;;;20.73;11.75;;;;;;;6.54;100.00;103933.81;5113313;28;20027;-58
2021/12/18 00:45:11;;;;;;;21.52;12.30;;;;;;;6.52;100.00;103928.56;5113736;28;20115;-58
2021/12/18 00:47:37;;;;;;;17.08;10.27;;;;;;;6.49;100.00;103930.81;5113889;27;20089;-58
2021/12/18 00:50:04;;;;;;;17.92;9.57;;;;;;;6.48;100.00;103929.03;5113436;27;20024;-57
2021/12/18 00:52:29;;;;;;;13.85;8.65;;;;;;;6.46;100.00;103927.97;5113520;27;20106;-57
2021/12/18 00:54:55;;;;;;;16.92;8.95;;;;;;;6.45;100.00;103923.59;5113943;28;20074;-58
2021/12/18 00:57:20;;;;;;;15.73;8.98;;;;;;;6.44;100.00;103924.34;5113183;28;20028;-57
2021/12/18 00:59:48;;;;;;;14.02;8.00;;;;;;;6.42;100.00;103929.31;5113502;28;20023;-58
2021/12/18 01:02:14;;;;;;;14.27;8.20;;;;;;;6.42;100.00;103925.88;5113405;28;20019;-58
2021/12/18 01:04:39;;;;;;;12.88;7.13;;;;;;;6.41;100.00;103917.25;5113365;28;20016;-58
2021/12/18 01:07:05;;;;;;;12.88;6.97;;;;;;;6.41;100.00;103916.38;5113476;28;20064;-57
2021/12/18 01:09:56;;;;;;;14.00;7.03;;;;;;;6.41;100.00;103916.38;5113957;27;20027;-57
2021/12/18 01:12:28;;;;;;;12.93;7.10;;;;;;;6.40;100.00;103919.69;5113307;28;20454;-57
2021/12/18 01:15:08;;;;;;;15.32;8.05;;;;;;;6.39;100.00;103912.75;5113374;28;20027;-58
2021/12/18 01:23:01;;;;;;;14.32;7.95;;;;;;;6.40;100.00;103906.88;5113335;28;20030;-57
2021/12/18 01:25:26;;;;;;;15.13;8.40;;;;;;;6.39;100.00;103900.88;5112892;28;20023;-57
2021/12/18 01:27:52;;;;;;;16.98;8.70;;;;;;;6.38;100.00;103909.28;5113337;28;20432;-58
2021/12/18 01:30:19;;;;;;;15.57;8.25;;;;;;;6.39;100.00;103913.66;5113347;28;20027;-58
2021/12/18 01:32:44;;;;;;;14.23;7.95;;;;;;;6.40;100.00;103912.00;5112858;28;20499;-57
2021/12/18 01:35:10;;;;;;;14.32;7.93;;;;;;;6.41;100.00;103909.56;5113037;28;20055;-58
2021/12/18 01:37:35;;;;;;;14.30;8.25;;;;;;;6.40;100.00;103910.34;5113213;28;20019;-57
2021/12/18 01:40:00;;;;;;;16.00;8.15;;;;;;;6.41;100.00;103912.13;5112870;28;20031;-57
2021/12/18 01:43:29;;;;;;;14.40;8.18;;;;;;;6.43;100.00;103912.31;5113020;28;20399;-58
2021/12/18 01:45:49;;;;;;;14.82;8.90;;;;;;;6.41;100.00;103911.25;5112345;28;20031;-58
2021/12/18 01:53:47;;;;;;;16.05;8.70;;;;;;;6.41;100.00;103931.75;5105072;28;20032;-57
2021/12/18 01:56:12;;;;;;;15.88;9.05;;;;;;;6.40;100.00;103935.06;5116988;28;20023;-58
2021/12/18 01:58:38;;;;;;;15.68;9.07;;;;;;;6.41;100.00;103944.56;5117176;28;20034;-58
2021/12/18 02:01:05;;;;;;;14.57;8.35;;;;;;;6.40;100.00;103935.06;5116611;28;20118;-58
2021/12/18 02:03:32;;;;;;;16.20;8.87;;;;;;;6.39;100.00;103935.81;5116965;28;20489;-57
2021/12/18 02:05:57;;;;;;;16.17;9.37;;;;;;;6.38;100.00;103941.72;5116587;28;20375;-57
2021/12/18 02:08:26;;;;;;;15.48;9.02;;;;;;;6.38;100.00;103944.28;5116766;27;20055;-58
2021/12/18 02:11:01;;;;;;;17.40;9.52;;;;;;;6.36;100.00;103941.53;5116967;28;20027;-57
2021/12/18 02:21:23;;;;;;;17.88;10.02;;;;;;;6.34;100.00;103935.38;5115995;28;20080;-58
2021/12/18 02:23:49;;;;;;;17.35;9.65;;;;;;;6.34;100.00;103934.47;5116892;28;20048;-57
2021/12/18 02:26:14;;;;;;;18.98;11.00;;;;;;;6.34;100.00;103937.00;5116706;28;20024;-58
2021/12/18 02:28:44;;;;;;;17.90;10.30;;;;;;;6.33;100.00;103931.00;5116252;28;20076;-58
2021/12/18 02:31:10;;;;;;;20.17;11.23;;;;;;;6.32;100.00;103925.75;5116282;28;20451;-58
2021/12/18 02:33:35;;;;;;;19.38;10.73;;;;;;;6.31;100.00;103929.94;5116628;28;20026;-58
2021/12/18 02:36:04;;;;;;;19.00;11.20;;;;;;;6.31;100.00;103923.94;5115923;27;20498;-58
2021/12/18 02:43:53;;;;;;;19.42;11.48;;;;;;;6.30;100.00;103922.13;5116431;28;20106;-57
2021/12/18 02:46:20;;;;;;;21.17;12.07;;;;;;;6.28;100.00;103914.28;5116159;28;20081;-58
2021/12/18 02:48:47;;;;;;;21.50;13.15;;;;;;;6.28;100.00;103903.16;5116044;28;20051;-58
2021/12/18 02:51:13;;;;;;;22.20;12.43;;;;;;;6.30;100.00;103901.63;5115812;28;20027;-58
2021/12/18 02:53:43;;;;;;;21.42;12.80;;;;;;;6.28;100.00;103908.28;5116447;28;20020;-58
2021/12/18 02:56:10;;;;;;;22.02;13.18;;;;;;;6.26;100.00;103903.91;5115548;28;20031;-58
2021/12/18 02:58:38;;;;;;;23.83;13.63;;;;;;;6.28;100.00;103903.16;5115810;28;20438;-57
2021/12/18 03:01:05;;;;;;;22.35;12.77;;;;;;;6.27;100.00;103897.09;5115809;28;20028;-58
2021/12/18 03:03:34;;;;;;;23.70;13.40;;;;;;;6.27;100.00;103884.31;5114713;28;20077;-58
2021/12/18 03:06:31;;;;;;;22.70;13.35;;;;;;;6.28;100.00;103898.91;5116073;28;20027;-58
2021/12/18 03:09:14;;;;;;;21.77;12.05;;;;;;;6.26;100.00;103901.34;5115620;28;20063;-58
2021/12/18 03:27:43;;;;;;;24.15;13.20;;;;;;;6.18;100.00;103884.31;5115421;28;20035;-57
2021/12/18 03:30:09;;;;;;;25.25;13.85;;;;;;;6.18;100.00;103893.66;5115268;28;20107;-58
2021/12/18 03:32:35;;;;;;;21.40;12.32;;;;;;;6.17;100.00;103887.66;5115078;28;20059;-57
2021/12/18 03:35:01;;;;;;;20.83;11.63;;;;;;;6.17;100.00;103884.16;5115364;28;20024;-58
2021/12/18 03:37:26;;;;;;;20.08;11.63;;;;;;;6.18;100.00;103884.31;5114808;28;20027;-58
2021/12/18 03:39:52;;;;;;;21.60;12.30;;;;;;;6.19;100.00;103893.81;5115178;28;20106;-58
2021/12/18 03:42:18;;;;;;;24.08;13.18;;;;;;;6.18;100.00;103892.00;5114913;28;20024;-57
2021/12/18 03:44:43;;;;;;;24.13;13.57;;;;;;;6.18;100.00;103894.56;5114641;28;20024;-58
2021/12/18 03:47:08;;;;;;;25.20;14.15;;;;;;;6.19;100.00;103892.91;5115105;28;20027;-58
2021/12/18 03:49:34;;;;;;;24.60;12.75;;;;;;;6.19;100.00;103896.38;5115246;27;20020;-57
2021/12/18 03:51:59;;;;;;;25.83;13.57;;;;;;;6.21;100.00;103896.50;5114683;28;20076;-57
2021/12/18 03:54:25;;;;;;;31.10;14.13;;;;;;;6.17;100.00;103890.22;5114675;28;20073;-58
2021/12/18 03:56:51;;;;;;;27.10;13.93;;;;;;;6.17;100.00;103897.91;5114942;28;20538;-58
2021/12/18 03:59:16;;;;;;;30.35;14.27;;;;;;;6.17;100.00;103900.47;5114019;28;20020;-58
2021/12/18 04:01:42;;;;;;;29.83;15.43;;;;;;;6.17;100.00;103900.47;5114875;28;20028;-58
2021/12/18 04:04:07;;;;;;;28.30;15.02;;;;;;;6.17;100.00;103900.47;5114952;28;20020;-58
2021/12/18 04:06:33;;;;;;;26.98;14.48;;;;;;;6.18;100.00;103896.22;5114428;28;20859;-57
2021/12/18 04:08:58;;;;;;;26.70;14.65;;;;;;;6.17;100.00;103889.28;5114687;28;20036;-58
2021/12/18 04:11:24;;;;;;;29.30;14.75;;;;;;;6.18;100.00;103888.53;5114534;28;20114;-58
2021/12/18 04:13:49;;;;;;;29.88;15.18;;;;;;;6.17;100.00;103887.66;5114133;28;20028;-57
2021/12/18 04:16:16;;;;;;;30.80;15.15;;;;;;;6.16;100.00;103897.72;5114365;28;20051;-57
2021/12/18 04:18:41;;;;;;;28.48;15.93;;;;;;;6.15;100.00;103899.38;5114639;28;20176;-58
2021/12/18 04:21:07;;;;;;;30.55;16.08;;;;;;;6.14;100.00;103894.13;5113867;28;20119;-58
2021/12/18 04:23:32;;;;;;;33.28;16.77;;;;;;;6.13;100.00;103887.19;5114325;28;20030;-58
2021/12/18 04:25:58;;;;;;;33.40;17.98;;;;;;;6.16;100.00;103885.84;5114409;28;20028;-58
2021/12/18 04:28:24;;;;;;;38.55;18.25;;;;;;;6.17;100.00;103897.91;5113561;28;20023;-58
2021/12/18 04:30:50;;;;;;;34.08;17.30;;;;;;;6.18;100.00;103892.00;5114374;28;20024;-58
2021/12/18 04:33:15;;;;;;;33.38;17.25;;;;;;;6.18;100.00;103894.56;5114105;28;20385;-58
2021/12/18 04:35:41;;;;;;;35.03;18.05;;;;;;;6.20;100.00;103890.50;5113862;28;20069;-58
2021/12/18 04:38:06;;;;;;;34.13;17.63;;;;;;;6.19;100.00;103898.94;5113944;28;20020;-57
2021/12/18 04:40:32;;;;;;;36.38;19.02;;;;;;;6.18;100.00;103896.22;5113986;28;20038;-57
2021/12/18 04:42:58;;;;;;;39.53;18.98;;;;;;;6.17;100.00;103894.41;5113604;28;20034;-57
2021/12/18 04:45:24;;;;;;;37.45;19.00;;;;;;;6.16;100.00;103900.28;5113825;28;20094;-58
2021/12/18 04:47:50;;;;;;;38.05;18.08;;;;;;;6.16;100.00;103897.72;5113434;28;20477;-57
2021/12/18 04:50:15;;;;;;;31.67;16.85;;;;;;;6.13;100.00;103900.88;5113677;28;20027;-58
2021/12/18 04:52:41;;;;;;;32.25;16.77;;;;;;;6.10;100.00;103900.59;5114101;28;20386;-58
2021/12/18 04:55:06;;;;;;;32.38;16.88;;;;;;;6.09;100.00;103909.03;5113312;28;20364;-57
2021/12/18 04:57:32;;;;;;;33.78;16.50;;;;;;;6.06;100.00;103904.50;5113417;28;20028;-58
2021/12/18 04:59:57;;;;;;;33.05;17.00;;;;;;;6.03;100.00;103911.91;5113992;28;20034;-58
2021/12/18 05:02:32;;;;;;;29.80;15.18;;;;;;;6.02;100.00;103909.22;5113185;28;20482;-58
2021/12/18 05:04:58;;;;;;;31.58;16.05;;;;;;;6.01;100.00;103912.50;5113666;28;20062;-58
2021/12/18 05:07:23;;;;;;;32.33;16.23;;;;;;;6.02;100.00;103911.78;5113554;28;20054;-57
2021/12/18 05:09:48;;;;;;;33.40;16.67;;;;;;;6.01;100.00;103910.84;5113134;28;20035;-58
2021/12/18 05:12:14;;;;;;;32.35;16.42;;;;;;;6.01;100.00;103908.28;5113054;28;20024;-58
2021/12/18 05:14:39;;;;;;;32.83;16.52;;;;;;;6.00;100.00;103919.28;5113552;28;20040;-57
2021/12/18 05:17:04;;;;;;;32.22;16.23;;;;;;;6.01;100.00;103908.28;5113024;28;20459;-58
2021/12/18 05:19:29;;;;;;;36.13;18.70;;;;;;;6.01;100.00;103912.50;5113086;28;20047;-58
2021/12/18 05:21:55;;;;;;;37.90;18.73;;;;;;;6.00;100.00;103915.81;5113423;28;20088;-57
2021/12/18 05:24:20;;;;;;;39.58;18.38;;;;;;;5.98;100.00;103910.56;5112559;28;20026;-57
2021/12/18 05:26:45;;;;;;;32.78;16.00;;;;;;;5.98;100.00;103914.72;5112727;28;20019;-58
2021/12/18 05:29:11;;;;;;;31.05;15.82;;;;;;;5.98;100.00;103912.16;5113519;28;20024;-58
2021/12/18 05:31:36;;;;;;;31.70;15.52;;;;;;;5.98;100.00;103917.28;5112719;28;20024;-57
2021/12/18 05:34:04;;;;;;;32.67;15.63;;;;;;;5.98;100.00;103918.25;5113149;28;20486;-57
2021/12/18 05:39:13;;;;;;;35.65;17.45;;;;;;;6.00;100.00;103910.69;5112869;28;20084;-57
2021/12/18 05:41:38;;;;;;;33.67;16.20;;;;;;;6.01;100.00;103915.06;5113139;28;20027;-57
2021/12/18 05:44:05;;;;;;;38.00;17.23;;;;;;;5.99;100.00;103914.94;5112749;28;20028;-57
2021/12/18 05:46:31;;;;;;;38.13;17.48;;;;;;;5.99;100.00;103919.13;5113029;28;20043;-58
2021/12/18 05:48:56;;;;;;;36.33;16.42;;;;;;;5.98;100.00;103913.13;5113298;28;20544;-58
2021/12/18 05:51:22;;;;;;;36.88;16.83;;;;;;;5.97;100.00;103910.38;5112441;28;20393;-57
2021/12/18 05:53:47;;;;;;;36.00;16.42;;;;;;;5.97;100.00;103918.06;5112827;28;20375;-57
2021/12/18 05:56:12;;;;;;;39.72;17.23;;;;;;;5.95;100.00;103907.66;5113187;28;20024;-57
2021/12/18 05:58:41;;;;;;;39.40;17.58;;;;;;;5.94;100.00;103910.97;5112629;28;20463;-58
2021/12/18 06:01:06;;;;;;;39.33;17.20;;;;;;;5.92;100.00;103905.69;5112747;28;20077;-58
2021/12/18 06:03:31;;;;;;;37.45;16.85;;;;;;;5.92;100.00;103907.34;5113074;28;20031;-58
2021/12/18 06:05:56;;;;;;;39.35;16.75;;;;;;;5.93;100.00;103910.06;5112586;28;20055;-57
2021/12/18 06:08:24;;;;;;;36.25;16.95;;;;;;;5.95;100.00;103912.75;5112372;28;20038;-57
2021/12/18 06:10:50;;;;;;;41.78;17.23;;;;;;;5.96;100.00;103909.47;5113273;28;20092;-57
2021/12/18 06:13:15;;;;;;;39.42;17.02;;;;;;;5.98;100.00;103902.88;5112289;28;20051;-58
2021/12/18 06:15:40;;;;;;;37.65;15.00;;;;;;;5.98;100.00;103907.03;5112888;28;20497;-58
2021/12/18 06:18:06;;;;;;;38.60;15.90;;;;;;;6.01;100.00;103907.41;5112953;28;20016;-57
2021/12/18 06:20:31;;;;;;;38.53;17.02;;;;;;;6.04;100.00;103907.69;5112002;28;20039;-58
2021/12/18 06:22:57;;;;;;;41.03;16.92;;;;;;;6.04;100.00;103902.56;5112697;28;20069;-58
2021/12/18 06:25:22;;;;;;;41.35;16.13;;;;;;;6.04;100.00;103893.25;5112748;28;20036;-58
2021/12/18 06:27:48;;;;;;;43.20;18.23;;;;;;;6.07;100.00;103900.31;5112464;28;20053;-58
2021/12/18 06:30:16;;;;;;;45.00;17.83;;;;;;;6.07;100.00;103900.31;5112519;28;20387;-57
2021/12/18 06:32:41;;;;;;;43.30;17.92;;;;;;;6.09;100.00;103896.22;5112980;28;20024;-58
2021/12/18 06:35:08;;;;;;;41.45;17.65;;;;;;;6.10;100.00;103903.16;5112192;28;20028;-56
2021/12/18 06:37:33;;;;;;;42.45;17.35;;;;;;;6.11;100.00;103902.41;5112396;28;20038;-57
2021/12/18 06:39:59;;;;;;;39.15;17.77;;;;;;;6.12;100.00;103901.66;5115621;28;20027;-57
2021/12/18 06:42:24;;;;;;;40.70;17.15;;;;;;;6.14;100.00;103902.69;5115777;28;20023;-57
2021/12/18 06:44:50;;;;;;;44.13;17.83;;;;;;;6.14;100.00;103895.00;5116178;28;20042;-58
2021/12/18 06:47:15;;;;;;;43.90;18.13;;;;;;;6.17;100.00;103904.66;5115723;28;20181;-58
2021/12/18 06:49:40;;;;;;;39.65;16.90;;;;;;;6.17;100.00;103900.47;5116089;28;20439;-58
2021/12/18 06:52:06;;;;;;;46.00;17.92;;;;;;;6.17;100.00;103907.22;5115927;28;20487;-57
2021/12/18 06:54:32;;;;;;;46.70;17.55;;;;;;;6.17;100.00;103897.91;5115709;28;20033;-58
2021/12/18 06:56:57;;;;;;;43.22;17.30;;;;;;;6.16;100.00;103895.16;5116045;28;20015;-58
2021/12/18 06:59:22;;;;;;;41.58;17.52;;;;;;;6.17;100.00;103894.41;5115892;28;20115;-57
2021/12/18 07:01:52;;;;;;;40.42;17.17;;;;;;;6.18;100.00;103899.69;5115624;28;20036;-58
2021/12/18 07:04:17;;;;;;;38.55;15.27;;;;;;;6.17;100.00;103899.53;5115536;28;20026;-58
2021/12/18 07:06:42;;;;;;;38.70;16.00;;;;;;;6.20;100.00;103895.63;5115895;28;20024;-58
2021/12/18 07:09:07;;;;;;;38.72;15.48;;;;;;;6.19;100.00;103898.94;5115263;28;20046;-58
2021/12/18 07:11:33;;;;;;;35.63;14.50;;;;;;;6.17;100.00;103903.03;5115702;28;20356;-58
2021/12/18 07:13:58;;;;;;;33.65;13.43;;;;;;;6.19;100.00;103898.94;5115993;28;20032;-57
2021/12/18 07:16:23;;;;;;;33.28;14.05;;;;;;;6.19;100.00;103904.06;5115143;28;20023;-58
2021/12/18 07:18:51;;;;;;;34.58;13.95;;;;;;;6.19;100.00;103906.59;5115222;28;20054;-58
2021/12/18 07:21:16;;;;;;;35.08;13.50;;;;;;;6.20;100.00;103897.28;5115321;28;20398;-58
2021/12/18 07:23:42;;;;;;;37.17;14.23;;;;;;;6.21;100.00;103902.56;5115317;27;20039;-57
2021/12/18 07:26:07;;;;;;;34.35;13.48;;;;;;;6.18;100.00;103906.47;5115538;27;20081;-57
2021/12/18 07:28:32;;;;;;;37.55;15.38;;;;;;;6.18;100.00;103902.25;5115557;28;20050;-57
2021/12/18 07:30:58;;;;;;;30.60;12.52;;;;;;;6.18;100.00;103907.34;5114990;28;20080;-58
2021/12/18 07:33:23;;;;;;;35.33;12.80;;;;;;;6.19;100.00;103914.28;5115011;28;20489;-58
2021/12/18 07:35:49;;;;;;;30.80;12.70;;;;;;;6.16;100.00;103900.28;5115269;28;20053;-57
2021/12/18 07:38:15;;;;;;;24.25;11.13;;;;;;;6.13;100.00;103906.00;5114485;28;20023;-58
2021/12/18 07:40:40;;;;;;;28.25;11.23;;;;;;;6.10;100.00;103903.16;5115117;28;20364;-58
2021/12/18 07:43:05;;;;;;;29.52;12.55;;;;;;;6.13;100.00;103913.69;5115194;28;20428;-57
2021/12/18 07:45:33;;;;;;;28.20;11.30;;;;;;;6.11;100.00;103912.66;5114556;28;20032;-57
2021/12/18 07:47:59;;;;;;;31.52;12.13;;;;;;;6.08;100.00;103913.25;5115205;28;20032;-58
2021/12/18 07:50:24;;;;;;;32.70;12.65;;;;;;;6.08;100.00;103913.25;5114465;28;20080;-57
2021/12/18 07:52:50;;;;;;;33.03;12.63;;;;;;;6.08;100.00;103917.47;5114214;28;20103;-57
2021/12/18 07:55:16;;;;;;;31.63;11.73;;;;;;;6.07;100.00;103923.38;5114838;28;20110;-58
2021/12/18 07:57:42;;;;;;;29.70;11.50;;;;;;;6.06;100.00;103919.00;5114557;28;20034;-58
2021/12/18 08:00:11;;;;;;;33.05;12.13;;;;;;;6.05;100.00;103919.75;5114448;28;20027;-58
2021/12/18 08:02:37;;;;;;;30.55;11.77;;;;;;;6.05;100.00;103920.63;5114794;28;20056;-58
2021/12/18 08:05:03;;;;;;;33.47;11.65;;;;;;;6.07;100.00;103913.13;5114089;28;20023;-57
2021/12/18 08:07:28;;;;;;;31.92;11.88;;;;;;;6.08;100.00;103918.38;5114659;28;20028;-57
2021/12/18 08:09:53;;;;;;;27.20;10.73;;;;;;;6.07;100.00;103915.69;5114905;28;20449;-58
2021/12/18 08:12:19;;;;;;;31.13;11.05;;;;;;;6.06;100.00;103917.31;5113958;28;20027;-57
2021/12/18 08:14:44;;;;;;;32.65;11.52;;;;;;;6.08;100.00;103914.91;5114311;28;20020;-58
2021/12/18 08:17:09;;;;;;;30.92;11.20;;;;;;;6.12;100.00;103911.91;5114512;28;20100;-58
2021/12/18 08:19:35;;;;;;;31.50;12.57;;;;;;;6.11;100.00;103912.66;5113669;28;20039;-58
2021/12/18 08:22:00;;;;;;;32.55;12.07;;;;;;;6.09;100.00;103904.84;5114165;28;20028;-57
2021/12/18 08:24:26;;;;;;;32.80;11.60;;;;;;;6.11;100.00;103915.22;5114382;28;20055;-58
2021/12/18 08:26:51;;;;;;;29.25;10.82;;;;;;;6.15;100.00;103911.31;5113778;28;20023;-58
2021/12/18 08:29:17;;;;;;;33.05;11.30;;;;;;;6.14;100.00;103915.50;5113916;28;20015;-58
2021/12/18 08:31:42;;;;;;;31.83;10.77;;;;;;;6.14;100.00;103910.38;5114125;28;20032;-58
2021/12/18 08:34:07;;;;;;;34.70;11.82;;;;;;;6.15;100.00;103917.31;5113544;28;20016;-57
2021/12/18 08:36:33;;;;;;;30.10;10.88;;;;;;;6.15;100.00;103919.88;5113835;28;20107;-58
2021/12/18 08:38:58;;;;;;;20.65;8.02;;;;;;;6.12;100.00;103911.00;5114377;28;20039;-58
2021/12/18 08:41:23;;;;;;;19.30;7.00;;;;;;;6.09;100.00;103911.59;5113281;28;20391;-58
2021/12/18 08:43:49;;;;;;;21.27;7.65;;;;;;;6.07;100.00;103910.56;5113825;28;20026;-58
2021/12/18 08:46:15;;;;;;;20.70;7.72;;;;;;;6.06;100.00;103916.44;5113694;28;20031;-58
2021/12/18 08:48:41;;;;;;;20.10;7.45;;;;;;;6.06;100.00;103916.44;5113441;28;20027;-57
2021/12/18 08:51:06;;;;;;;23.30;7.50;;;;;;;6.07;100.00;103919.13;5113534;28;20046;-57
2021/12/18 08:53:31;;;;;;;20.38;7.30;;;;;;;6.08;100.00;103920.94;5113718;28;20467;-58
2021/12/18 08:55:57;;;;;;;21.17;7.07;;;;;;;6.10;100.00;103918.53;5113081;28;20024;-58
2021/12/18 08:58:22;;;;;;;18.67;6.88;;;;;;;6.12;100.00;103916.09;5113720;28;20479;-58
2021/12/18 09:00:47;;;;;;;17.73;6.45;;;;;;;6.13;100.00;103916.25;5113462;28;20031;-58
2021/12/18 09:03:13;;;;;;;23.40;7.70;;;;;;;6.14;100.00;103912.94;5112311;28;20023;-58
2021/12/18 09:05:38;;;;;;;22.23;7.75;;;;;;;6.16;100.00;103905.41;5113557;28;20055;-57
2021/12/18 09:08:03;;;;;;;23.38;8.80;;;;;;;6.13;100.00;103913.69;5112951;28;20030;-58
2021/12/18 09:10:29;;;;;;;28.42;9.95;;;;;;;6.15;100.00;103919.88;5113481;28;20055;-58
2021/12/18 09:12:54;;;;;;;25.92;9.25;;;;;;;6.11;100.00;103917.78;5113492;28;20110;-57
2021/12/18 09:15:20;;;;;;;27.38;8.82;;;;;;;6.07;100.00;103919.13;5112770;28;20031;-58
2021/12/18 09:17:46;;;;;;;26.17;8.52;;;;;;;6.10;100.00;103918.53;5113247;28;20035;-58
2021/12/18 09:20:12;;;;;;;22.45;8.40;;;;;;;6.10;100.00;103916.84;5112905;28;20052;-57
2021/12/18 09:22:38;;;;;;;25.33;8.67;;;;;;;6.09;100.00;103921.84;5112782;28;20415;-58
2021/12/18 09:25:05;;;;;;;22.33;7.05;;;;;;;6.10;100.00;103918.53;5113051;28;20292;-57
2021/12/18 09:27:31;;;;;;;19.45;7.22;;;;;;;6.08;100.00;103909.78;5113345;28;20047;-57
2021/12/18 09:29:57;;;;;;;17.45;6.00;;;;;;;6.06;100.00;103919.00;5113013;28;20107;-56
2021/12/18 09:32:23;;;;;;;15.00;5.97;;;;;;;6.05;100.00;103914.63;5112898;28;20091;-57
2021/12/18 09:34:48;;;;;;;19.30;6.13;;;;;;;6.05;100.00;103914.63;5113210;28;20032;-55
2021/12/18 09:37:13;;;;;;;14.98;5.25;;;;;;;6.03;100.00;103909.34;5112709;28;20023;-57
2021/12/18 09:39:38;;;;;;;12.70;5.05;;;;;;;6.00;100.00;103910.69;5113038;28;20048;-57
2021/12/18 09:42:04;;;;;;;11.05;3.88;;;;;;;6.05;100.00;103914.63;5113132;28;20034;-57
2021/12/18 09:44:32;;;;;;;11.48;4.22;;;;;;;6.07;100.00;103908.88;5112653;28;20035;-57
2021/12/18 09:46:59;;;;;;;10.23;4.32;;;;;;;6.11;100.00;103920.34;5113482;28;20038;-57
2021/12/18 09:49:24;;;;;;;11.90;4.18;;;;;;;6.14;100.00;103915.50;5112929;28;20027;-56
2021/12/18 09:51:51;;;;;;;8.57;3.92;;;;;;;6.14;100.00;103912.94;5112809;28;20069;-56
2021/12/18 09:54:16;;;;;;;9.85;3.83;;;;;;;6.12;100.00;103914.47;5112497;28;20484;-56
2021/12/18 09:56:43;;;;;;;7.88;3.17;;;;;;;6.08;100.00;103909.78;5113217;28;20111;-56
2021/12/18 09:59:09;;;;;;;6.40;2.53;;;;;;;6.10;100.00;103909.19;5112174;28;20084;-57
2021/12/18 10:01:34;;;;;;;6.10;2.92;;;;;;;6.12;100.00;103911.91;5112942;28;20463;-57
2021/12/18 10:04:01;;;;;;;6.70;3.20;;;;;;;6.11;100.00;103899.84;5112915;28;20028;-57
2021/12/18 10:06:39;;;;;;;7.57;3.70;;;;;;;6.19;100.00;103906.59;5112186;28;20389;-57
2021/12/18 10:09:16;;;;;;;7.45;3.60;;;;;;;6.20;100.00;103903.31;5112920;28;20020;-57
2021/12/18 10:11:46;;;;;;;10.10;3.78;;;;;;;6.18;100.00;103902.25;5112409;28;20081;-57
2021/12/18 10:14:12;;;;;;;8.65;4.15;;;;;;;6.25;100.00;103898.63;5115467;28;20019;-57
2021/12/18 10:16:51;;;;;;;9.60;4.32;;;;;;;6.32;100.00;103889.88;5116954;28;20073;-57
2021/12/18 10:19:28;;;;;;;7.93;4.00;;;;;;;6.36;100.00;103897.09;5116030;28;20096;-57
2021/12/18 10:21:57;;;;;;;8.18;4.55;;;;;;;6.36;100.00;103884.28;5116748;28;20106;-57
2021/12/18 10:24:22;;;;;;;9.68;5.20;;;;;;;6.36;100.00;103886.84;5116460;28;20089;-57
2021/12/18 10:26:47;;;;;;;11.77;5.32;;;;;;;6.38;100.00;103883.69;5116231;28;20398;-57
2021/12/18 10:29:35;;;;;;;12.50;6.10;;;;;;;6.45;100.00;103885.16;5116556;28;20102;-57
2021/12/18 10:32:08;;;;;;;12.82;6.63;;;;;;;6.38;100.00;103880.22;5116776;28;20027;-57
2021/12/18 10:34:33;;;;;;;13.85;7.32;;;;;;;6.36;100.00;103881.72;5115753;28;20031;-57
2021/12/18 10:37:22;;;;;;;15.85;7.97;;;;;;;6.37;100.00;103878.41;5116513;28;20026;-57
2021/12/18 10:39:53;;;;;;;15.25;7.53;;;;;;;6.30;100.00;103881.13;5115766;28;20493;-57
2021/12/18 10:42:20;;;;;;;16.67;8.02;;;;;;;6.29;100.00;103880.25;5116200;28;20034;-55
2021/12/18 10:45:00;;;;;;;16.25;8.05;;;;;;;6.27;100.00;103881.75;5116382;28;20356;-56
2021/12/18 10:47:41;;;;;;;18.40;8.43;;;;;;;6.19;100.00;103878.44;5115645;28;20024;-57
2021/12/18 10:50:18;;;;;;;19.35;9.52;;;;;;;6.19;100.00;103883.56;5116187;28;20046;-57
2021/12/18 10:52:43;;;;;;;;;;;;;;;6.29;100.00;103885.38;5116895;28;20038;-56
2021/12/18 10:55:09;;;;;;;15.93;7.05;;;;;;;6.05;100.00;103884.78;5115350;28;20002;-57
2021/12/18 10:57:34;;;;;;;14.45;7.20;;;;;;;6.03;100.00;103872.59;5116087;28;20073;-57
2021/12/18 10:59:59;;;;;;;16.42;7.55;;;;;;;5.96;100.00;103878.75;5115890;28;20028;-57
2021/12/18 11:02:27;;;;;;;13.27;7.03;;;;;;;5.96;100.00;103880.41;5115227;28;20073;-57
2021/12/18 11:05:11;;;;;;;14.23;6.93;;;;;;;5.91;100.00;103874.81;5116312;28;20028;-57
2021/12/18 11:07:42;;;;;;;13.43;6.60;;;;;;;5.83;100.00;103873.19;5115850;28;20062;-57
2021/12/18 11:10:42;;;;;;;13.15;7.03;;;;;;;5.85;100.00;103885.38;5115625;28;20032;-57
2021/12/18 11:15:53;;;;;;;15.35;7.65;;;;;;;5.90;100.00;103875.56;5115363;28;20169;-57
2021/12/18 11:18:19;;;;;;;14.20;7.60;;;;;;;5.91;100.00;103875.75;5115209;28;20405;-57
2021/12/18 11:20:49;;;;;;;13.48;7.45;;;;;;;5.87;100.00;103876.19;5115433;28;20043;-57
2021/12/18 11:23:16;;;;;;;16.17;8.05;;;;;;;5.93;100.00;103878.44;5114558;28;20065;-57
2021/12/18 11:25:42;;;;;;;16.70;8.17;;;;;;;5.94;100.00;103872.59;5115074;28;20020;-57
2021/12/18 11:28:08;;;;;;;16.42;8.55;;;;;;;5.95;100.00;103876.91;5115483;28;20276;-57
2021/12/18 11:30:34;;;;;;;19.33;8.80;;;;;;;6.00;100.00;103874.84;5114652;28;20020;-57
2021/12/18 11:33:00;;;;;;;16.13;8.38;;;;;;;6.01;100.00;103872.44;5115474;28;20486;-57
2021/12/18 11:35:27;;;;;;;17.15;8.65;;;;;;;6.03;100.00;103870.03;5115089;28;20065;-57
2021/12/18 11:38:08;;;;;;;19.02;9.63;;;;;;;6.06;100.00;103862.66;5114609;27;20543;-57
2021/12/18 11:40:36;;;;;;;21.35;9.82;;;;;;;6.06;100.00;103865.22;5115372;28;20031;-57
2021/12/18 11:43:37;;;;;;;22.52;11.57;;;;;;;6.03;100.00;103860.69;5114627;28;20070;-57
2021/12/18 11:46:24;;;;;;;23.08;13.13;;;;;;;5.89;100.00;103864.44;5114708;28;20383;-57
2021/12/18 11:49:09;;;;;;;23.80;12.18;;;;;;;5.81;100.00;103857.69;5115052;28;20035;-56
2021/12/18 11:51:35;;;;;;;22.17;11.57;;;;;;;5.72;100.00;103862.81;5114396;28;20035;-57
2021/12/18 11:54:03;;;;;;;23.52;11.50;;;;;;;5.65;100.00;103856.94;5115242;28;20020;-57
2021/12/18 11:56:44;;;;;;;;;;;;;;;5.73;100.00;103853.47;5115235;28;20483;-56
2021/12/18 11:59:09;;;;;;;27.02;12.55;;;;;;;5.56;100.00;103851.81;5114782;27;19916;-57
2021/12/18 12:01:43;;;;;;;24.20;12.50;;;;;;;5.52;100.00;103850.59;5114707;28;20492;-58
2021/12/18 12:04:09;;;;;;;26.80;11.23;;;;;;;5.44;100.00;103844.72;5114283;27;20023;-56